Athens, Georgia
Current Conditions -  °F | °C
As of 1:51 PM on Thursday 23 Oct 2014 (Local Time) from KAHN Reporting Station
Clear Clear  
Wind Chill: 69°   Ceiling: Unl
Heat Index: 69°   Visibility: 10mi
Dew Point: 42°   Wind: 0mph
Humidity: 38%   Direction: NA
Pressure: 30.05"   Gusts: NA
Location:  33.96°N, 83.37°W
Report Text: KAHN 231751Z 00000KT 10SM CLR 21/06 A3005 RMK AO2 SLP177 T02060056 10206 20039 58024
Loading
Personal Weather Stations






























Interactive Weather Map
Tropical Storm Tracking
New forecast layout! Learn more

10-Day Weather Forecast

Advertisements
Track Severe Weather on mobile